sensor_id;sensor_type;location;lat;lon;timestamp;temperature;humidity
13231;DHT22;6681;53.254;10.398;2022-11-20T00:00:50;1.60;99.90
13231;DHT22;6681;53.254;10.398;2022-11-20T00:03:16;2.80;99.90
13231;DHT22;6681;53.254;10.398;2022-11-20T00:05:43;1.80;99.90
13231;DHT22;6681;53.254;10.398;2022-11-20T00:08:08;1.50;99.90
13231;DHT22;6681;53.254;10.398;2022-11-20T00:10:38;1.50;99.90
13231;DHT22;6681;53.254;10.398;2022-11-20T00:13:04;1.70;99.90
13231;DHT22;6681;53.254;10.398;2022-11-20T00:15:30;1.90;99.90
13231;DHT22;6681;53.254;10.398;2022-11-20T00:17:56;1.60;99.90
13231;DHT22;6681;53.254;10.398;2022-11-20T00:20:22;1.60;99.90
13231;DHT22;6681;53.254;10.398;2022-11-20T00:22:47;1.60;99.90
13231;DHT22;6681;53.254;10.398;2022-11-20T00:25:13;1.60;99.90
13231;DHT22;6681;53.254;10.398;2022-11-20T00:27:39;1.60;99.90
13231;DHT22;6681;53.254;10.398;2022-11-20T00:30:05;1.60;99.90
13231;DHT22;6681;53.254;10.398;2022-11-20T00:32:31;1.60;99.90
13231;DHT22;6681;53.254;10.398;2022-11-20T00:34:57;1.50;99.90
13231;DHT22;6681;53.254;10.398;2022-11-20T00:37:22;2.30;99.90
13231;DHT22;6681;53.254;10.398;2022-11-20T00:39:48;1.60;99.90
13231;DHT22;6681;53.254;10.398;2022-11-20T00:42:13;1.70;99.90
13231;DHT22;6681;53.254;10.398;2022-11-20T00:44:39;1.50;99.90
13231;DHT22;6681;53.254;10.398;2022-11-20T00:47:05;1.50;99.90
13231;DHT22;6681;53.254;10.398;2022-11-20T00:49:30;2.60;99.90
13231;DHT22;6681;53.254;10.398;2022-11-20T00:51:56;1.50;99.90
13231;DHT22;6681;53.254;10.398;2022-11-20T00:54:22;1.90;99.90
13231;DHT22;6681;53.254;10.398;2022-11-20T00:56:47;1.50;99.90
13231;DHT22;6681;53.254;10.398;2022-11-20T00:59:13;2.20;99.90
13231;DHT22;6681;53.254;10.398;2022-11-20T01:01:38;2.20;99.90
13231;DHT22;6681;53.254;10.398;2022-11-20T01:04:11;1.50;99.90
13231;DHT22;6681;53.254;10.398;2022-11-20T01:06:39;1.40;99.90
13231;DHT22;6681;53.254;10.398;2022-11-20T01:09:09;1.50;99.90
13231;DHT22;6681;53.254;10.398;2022-11-20T01:11:38;1.70;99.90
13231;DHT22;6681;53.254;10.398;2022-11-20T01:14:06;1.50;99.90
13231;DHT22;6681;53.254;10.398;2022-11-20T01:16:38;1.50;99.90
13231;DHT22;6681;53.254;10.398;2022-11-20T01:19:07;1.50;99.90
13231;DHT22;6681;53.254;10.398;2022-11-20T01:21:35;2.10;99.90
13231;DHT22;6681;53.254;10.398;2022-11-20T01:24:03;1.50;99.90
13231;DHT22;6681;53.254;10.398;2022-11-20T01:26:31;1.50;99.90
13231;DHT22;6681;53.254;10.398;2022-11-20T01:28:58;1.50;99.90
13231;DHT22;6681;53.254;10.398;2022-11-20T01:31:33;1.60;99.90
13231;DHT22;6681;53.254;10.398;2022-11-20T01:34:02;1.50;99.90
13231;DHT22;6681;53.254;10.398;2022-11-20T01:36:30;1.50;99.90
13231;DHT22;6681;53.254;10.398;2022-11-20T01:38:58;1.50;99.90
13231;DHT22;6681;53.254;10.398;2022-11-20T01:41:28;2.20;99.90
13231;DHT22;6681;53.254;10.398;2022-11-20T01:44:17;2.30;99.90
13231;DHT22;6681;53.254;10.398;2022-11-20T01:46:59;1.60;99.90
13231;DHT22;6681;53.254;10.398;2022-11-20T01:49:47;1.40;99.90
13231;DHT22;6681;53.254;10.398;2022-11-20T01:52:36;1.40;99.90
13231;DHT22;6681;53.254;10.398;2022-11-20T01:55:20;1.40;99.90
13231;DHT22;6681;53.254;10.398;2022-11-20T01:57:48;1.40;99.90
13231;DHT22;6681;53.254;10.398;2022-11-20T02:00:17;2.40;99.90
13231;DHT22;6681;53.254;10.398;2022-11-20T02:03:00;1.40;99.90
13231;DHT22;6681;53.254;10.398;2022-11-20T02:05:38;1.40;99.90
13231;DHT22;6681;53.254;10.398;2022-11-20T02:08:06;1.30;99.90
13231;DHT22;6681;53.254;10.398;2022-11-20T02:10:32;1.30;99.90
13231;DHT22;6681;53.254;10.398;2022-11-20T02:12:58;1.30;99.90
13231;DHT22;6681;53.254;10.398;2022-11-20T02:15:42;1.30;99.90
13231;DHT22;6681;53.254;10.398;2022-11-20T02:18:10;1.30;99.90
13231;DHT22;6681;53.254;10.398;2022-11-20T02:20:36;1.50;99.90
13231;DHT22;6681;53.254;10.398;2022-11-20T02:23:12;1.10;99.90
13231;DHT22;6681;53.254;10.398;2022-11-20T02:25:39;1.00;99.90
13231;DHT22;6681;53.254;10.398;2022-11-20T02:28:05;1.00;99.90
13231;DHT22;6681;53.254;10.398;2022-11-20T02:30:31;1.00;99.90
13231;DHT22;6681;53.254;10.398;2022-11-20T02:32:57;1.00;99.90
13231;DHT22;6681;53.254;10.398;2022-11-20T02:37:52;2.50;99.90
13231;DHT22;6681;53.254;10.398;2022-11-20T02:40:18;1.00;99.90
13231;DHT22;6681;53.254;10.398;2022-11-20T02:42:44;1.00;99.90
13231;DHT22;6681;53.254;10.398;2022-11-20T02:45:10;1.50;99.90
13231;DHT22;6681;53.254;10.398;2022-11-20T02:47:36;1.10;99.90
13231;DHT22;6681;53.254;10.398;2022-11-20T02:50:02;1.10;99.90
13231;DHT22;6681;53.254;10.398;2022-11-20T02:52:27;1.10;99.90
13231;DHT22;6681;53.254;10.398;2022-11-20T02:54:53;1.10;99.90
13231;DHT22;6681;53.254;10.398;2022-11-20T02:57:19;1.70;99.90
13231;DHT22;6681;53.254;10.398;2022-11-20T02:59:44;1.10;99.90
13231;DHT22;6681;53.254;10.398;2022-11-20T03:02:10;2.20;99.90
13231;DHT22;6681;53.254;10.398;2022-11-20T03:04:36;1.10;99.90
13231;DHT22;6681;53.254;10.398;2022-11-20T03:07:01;2.00;99.90
13231;DHT22;6681;53.254;10.398;2022-11-20T03:09:27;1.10;99.90
13231;DHT22;6681;53.254;10.398;2022-11-20T03:11:53;1.10;99.90
13231;DHT22;6681;53.254;10.398;2022-11-20T03:14:18;1.10;99.90
13231;DHT22;6681;53.254;10.398;2022-11-20T03:16:44;1.40;99.90
13231;DHT22;6681;53.254;10.398;2022-11-20T03:19:10;1.70;99.90
13231;DHT22;6681;53.254;10.398;2022-11-20T03:21:36;1.00;99.90
13231;DHT22;6681;53.254;10.398;2022-11-20T03:24:02;1.60;99.90
13231;DHT22;6681;53.254;10.398;2022-11-20T03:26:28;1.10;99.90
13231;DHT22;6681;53.254;10.398;2022-11-20T03:28:58;2.10;99.90
13231;DHT22;6681;53.254;10.398;2022-11-20T03:31:33;1.10;99.90
13231;DHT22;6681;53.254;10.398;2022-11-20T03:34:00;1.50;99.90
13231;DHT22;6681;53.254;10.398;2022-11-20T03:36:26;1.10;99.90
13231;DHT22;6681;53.254;10.398;2022-11-20T03:38:54;1.60;99.90
13231;DHT22;6681;53.254;10.398;2022-11-20T03:41:26;1.90;99.90
13231;DHT22;6681;53.254;10.398;2022-11-20T03:43:54;1.10;99.90
13231;DHT22;6681;53.254;10.398;2022-11-20T03:46:20;1.40;99.90
13231;DHT22;6681;53.254;10.398;2022-11-20T03:48:46;1.00;99.90
13231;DHT22;6681;53.254;10.398;2022-11-20T03:51:15;1.00;99.90
13231;DHT22;6681;53.254;10.398;2022-11-20T03:53:44;1.50;99.90
13231;DHT22;6681;53.254;10.398;2022-11-20T03:56:11;0.90;99.90
13231;DHT22;6681;53.254;10.398;2022-11-20T03:58:38;2.10;99.90
13231;DHT22;6681;53.254;10.398;2022-11-20T04:03:32;-1.10;99.90
13231;DHT22;6681;53.254;10.398;2022-11-20T04:06:03;1.00;99.90
13231;DHT22;6681;53.254;10.398;2022-11-20T04:08:29;2.20;99.90
13231;DHT22;6681;53.254;10.398;2022-11-20T04:10:55;1.00;99.90
13231;DHT22;6681;53.254;10.398;2022-11-20T04:13:21;2.30;99.90
13231;DHT22;6681;53.254;10.398;2022-11-20T04:15:46;1.10;99.90
13231;DHT22;6681;53.254;10.398;2022-11-20T04:18:12;1.00;99.90
13231;DHT22;6681;53.254;10.398;2022-11-20T04:20:37;1.00;99.90
13231;DHT22;6681;53.254;10.398;2022-11-20T04:23:03;2.90;99.90
13231;DHT22;6681;53.254;10.398;2022-11-20T04:25:29;1.00;99.90
13231;DHT22;6681;53.254;10.398;2022-11-20T04:27:55;1.00;99.90
13231;DHT22;6681;53.254;10.398;2022-11-20T04:30:20;2.20;99.90
13231;DHT22;6681;53.254;10.398;2022-11-20T04:32:46;1.00;99.90
13231;DHT22;6681;53.254;10.398;2022-11-20T04:35:11;0.90;99.90
13231;DHT22;6681;53.254;10.398;2022-11-20T04:37:37;1.00;99.90
13231;DHT22;6681;53.254;10.398;2022-11-20T04:40:03;2.40;99.90
13231;DHT22;6681;53.254;10.398;2022-11-20T04:42:28;1.00;99.90
13231;DHT22;6681;53.254;10.398;2022-11-20T04:44:55;1.00;99.90
13231;DHT22;6681;53.254;10.398;2022-11-20T04:47:21;1.20;99.90
13231;DHT22;6681;53.254;10.398;2022-11-20T04:49:47;1.00;99.90
13231;DHT22;6681;53.254;10.398;2022-11-20T04:52:13;1.80;99.90
13231;DHT22;6681;53.254;10.398;2022-11-20T04:54:38;1.80;99.90
13231;DHT22;6681;53.254;10.398;2022-11-20T04:57:04;1.10;99.90
13231;DHT22;6681;53.254;10.398;2022-11-20T04:59:30;2.30;99.90
13231;DHT22;6681;53.254;10.398;2022-11-20T05:01:56;1.10;99.90
13231;DHT22;6681;53.254;10.398;2022-11-20T05:04:21;1.20;99.90
13231;DHT22;6681;53.254;10.398;2022-11-20T05:06:50;1.10;99.90
13231;DHT22;6681;53.254;10.398;2022-11-20T05:09:16;2.40;99.90
13231;DHT22;6681;53.254;10.398;2022-11-20T05:11:45;1.10;99.90
13231;DHT22;6681;53.254;10.398;2022-11-20T05:14:13;1.10;99.90
13231;DHT22;6681;53.254;10.398;2022-11-20T05:16:39;1.00;99.90
13231;DHT22;6681;53.254;10.398;2022-11-20T05:19:05;1.40;99.90
13231;DHT22;6681;53.254;10.398;2022-11-20T05:21:31;1.00;99.90
13231;DHT22;6681;53.254;10.398;2022-11-20T05:23:57;1.00;99.90
13231;DHT22;6681;53.254;10.398;2022-11-20T05:26:23;1.00;99.90
13231;DHT22;6681;53.254;10.398;2022-11-20T05:28:50;1.00;99.90
13231;DHT22;6681;53.254;10.398;2022-11-20T05:31:22;1.00;99.90
13231;DHT22;6681;53.254;10.398;2022-11-20T05:33:49;1.30;99.90
13231;DHT22;6681;53.254;10.398;2022-11-20T05:36:15;1.20;99.90
13231;DHT22;6681;53.254;10.398;2022-11-20T05:38:42;1.30;99.90
13231;DHT22;6681;53.254;10.398;2022-11-20T05:41:10;1.10;99.90
13231;DHT22;6681;53.254;10.398;2022-11-20T05:43:37;1.00;99.90
13231;DHT22;6681;53.254;10.398;2022-11-20T05:46:05;1.10;99.90
13231;DHT22;6681;53.254;10.398;2022-11-20T05:48:31;1.10;99.90
13231;DHT22;6681;53.254;10.398;2022-11-20T05:51:02;1.10;99.90
13231;DHT22;6681;53.254;10.398;2022-11-20T05:53:29;1.10;99.90
13231;DHT22;6681;53.254;10.398;2022-11-20T05:56:15;1.10;99.90
13231;DHT22;6681;53.254;10.398;2022-11-20T05:58:41;1.10;99.90
13231;DHT22;6681;53.254;10.398;2022-11-20T06:01:24;1.10;99.90
13231;DHT22;6681;53.254;10.398;2022-11-20T06:03:50;1.20;99.90
13231;DHT22;6681;53.254;10.398;2022-11-20T06:06:16;1.20;99.90
13231;DHT22;6681;53.254;10.398;2022-11-20T06:08:43;1.20;99.90
13231;DHT22;6681;53.254;10.398;2022-11-20T06:11:11;1.60;99.90
13231;DHT22;6681;53.254;10.398;2022-11-20T06:13:38;1.00;99.90
13231;DHT22;6681;53.254;10.398;2022-11-20T06:16:04;2.20;99.90
13231;DHT22;6681;53.254;10.398;2022-11-20T06:18:30;1.00;99.90
13231;DHT22;6681;53.254;10.398;2022-11-20T06:21:04;2.00;99.90
13231;DHT22;6681;53.254;10.398;2022-11-20T06:23:31;1.10;99.90
13231;DHT22;6681;53.254;10.398;2022-11-20T06:25:58;1.10;99.90
13231;DHT22;6681;53.254;10.398;2022-11-20T06:28:23;1.10;99.90
13231;DHT22;6681;53.254;10.398;2022-11-20T06:30:49;1.20;99.90
13231;DHT22;6681;53.254;10.398;2022-11-20T06:33:15;1.20;99.90
13231;DHT22;6681;53.254;10.398;2022-11-20T06:35:40;2.40;99.90
13231;DHT22;6681;53.254;10.398;2022-11-20T06:38:06;1.20;99.90
13231;DHT22;6681;53.254;10.398;2022-11-20T06:40:32;1.10;99.90
13231;DHT22;6681;53.254;10.398;2022-11-20T06:42:57;1.10;99.90
13231;DHT22;6681;53.254;10.398;2022-11-20T06:45:23;2.40;99.90
13231;DHT22;6681;53.254;10.398;2022-11-20T06:47:49;1.00;99.90
13231;DHT22;6681;53.254;10.398;2022-11-20T06:50:14;2.30;99.90
13231;DHT22;6681;53.254;10.398;2022-11-20T06:52:40;1.00;99.90
13231;DHT22;6681;53.254;10.398;2022-11-20T06:55:06;1.00;99.90
13231;DHT22;6681;53.254;10.398;2022-11-20T06:57:32;1.00;99.90
13231;DHT22;6681;53.254;10.398;2022-11-20T06:59:57;1.00;99.90
13231;DHT22;6681;53.254;10.398;2022-11-20T07:02:23;1.50;99.90
13231;DHT22;6681;53.254;10.398;2022-11-20T07:04:48;1.40;99.90
13231;DHT22;6681;53.254;10.398;2022-11-20T07:07:14;1.80;99.90
13231;DHT22;6681;53.254;10.398;2022-11-20T07:09:40;1.00;99.90
13231;DHT22;6681;53.254;10.398;2022-11-20T07:12:05;1.10;99.90
13231;DHT22;6681;53.254;10.398;2022-11-20T07:14:31;1.00;99.90
13231;DHT22;6681;53.254;10.398;2022-11-20T07:16:57;1.40;99.90
13231;DHT22;6681;53.254;10.398;2022-11-20T07:19:22;1.00;99.90
13231;DHT22;6681;53.254;10.398;2022-11-20T07:21:48;1.00;99.90
13231;DHT22;6681;53.254;10.398;2022-11-20T07:24:13;1.60;99.90
13231;DHT22;6681;53.254;10.398;2022-11-20T07:26:39;2.40;99.90
13231;DHT22;6681;53.254;10.398;2022-11-20T07:29:05;1.40;99.90
13231;DHT22;6681;53.254;10.398;2022-11-20T07:31:30;0.90;99.90
13231;DHT22;6681;53.254;10.398;2022-11-20T07:33:56;0.90;99.90
13231;DHT22;6681;53.254;10.398;2022-11-20T07:36:21;1.20;99.90
13231;DHT22;6681;53.254;10.398;2022-11-20T07:38:47;1.00;99.90
13231;DHT22;6681;53.254;10.398;2022-11-20T07:41:13;0.90;99.90
13231;DHT22;6681;53.254;10.398;2022-11-20T07:43:38;1.40;99.90
13231;DHT22;6681;53.254;10.398;2022-11-20T07:46:04;1.70;99.90
13231;DHT22;6681;53.254;10.398;2022-11-20T07:48:30;1.30;99.90
13231;DHT22;6681;53.254;10.398;2022-11-20T07:50:56;1.30;99.90
13231;DHT22;6681;53.254;10.398;2022-11-20T07:53:25;1.10;99.90
13231;DHT22;6681;53.254;10.398;2022-11-20T07:55:50;1.10;99.90
13231;DHT22;6681;53.254;10.398;2022-11-20T07:58:20;2.30;99.90
13231;DHT22;6681;53.254;10.398;2022-11-20T08:00:46;1.10;99.90
13231;DHT22;6681;53.254;10.398;2022-11-20T08:03:12;1.10;99.90
13231;DHT22;6681;53.254;10.398;2022-11-20T08:05:38;1.20;99.90
13231;DHT22;6681;53.254;10.398;2022-11-20T08:08:03;1.20;99.90
13231;DHT22;6681;53.254;10.398;2022-11-20T08:10:29;1.20;99.90
13231;DHT22;6681;53.254;10.398;2022-11-20T08:12:55;1.20;99.90
13231;DHT22;6681;53.254;10.398;2022-11-20T08:15:40;1.30;99.90
13231;DHT22;6681;53.254;10.398;2022-11-20T08:18:12;1.30;99.90
13231;DHT22;6681;53.254;10.398;2022-11-20T08:20:38;1.30;99.90
13231;DHT22;6681;53.254;10.398;2022-11-20T08:23:06;1.40;99.90
13231;DHT22;6681;53.254;10.398;2022-11-20T08:25:33;1.40;99.90
13231;DHT22;6681;53.254;10.398;2022-11-20T08:28:00;1.90;99.90
13231;DHT22;6681;53.254;10.398;2022-11-20T08:30:26;1.60;99.90
13231;DHT22;6681;53.254;10.398;2022-11-20T08:32:53;1.40;99.90
13231;DHT22;6681;53.254;10.398;2022-11-20T08:35:19;1.70;99.90
13231;DHT22;6681;53.254;10.398;2022-11-20T08:37:48;2.10;99.90
13231;DHT22;6681;53.254;10.398;2022-11-20T08:40:14;1.50;99.90
13231;DHT22;6681;53.254;10.398;2022-11-20T08:42:50;2.80;99.90
13231;DHT22;6681;53.254;10.398;2022-11-20T08:45:26;1.40;99.90
13231;DHT22;6681;53.254;10.398;2022-11-20T08:47:51;1.40;99.90
13231;DHT22;6681;53.254;10.398;2022-11-20T08:50:17;1.50;99.90
13231;DHT22;6681;53.254;10.398;2022-11-20T08:52:43;1.50;99.90
13231;DHT22;6681;53.254;10.398;2022-11-20T08:55:09;3.60;99.90
13231;DHT22;6681;53.254;10.398;2022-11-20T08:57:36;1.60;99.90
13231;DHT22;6681;53.254;10.398;2022-11-20T09:00:03;1.90;99.90
13231;DHT22;6681;53.254;10.398;2022-11-20T09:02:29;1.70;99.90
13231;DHT22;6681;53.254;10.398;2022-11-20T09:04:55;1.70;99.90
13231;DHT22;6681;53.254;10.398;2022-11-20T09:07:21;1.80;99.90
13231;DHT22;6681;53.254;10.398;2022-11-20T09:09:46;1.80;99.90
13231;DHT22;6681;53.254;10.398;2022-11-20T09:12:13;1.90;99.90
13231;DHT22;6681;53.254;10.398;2022-11-20T09:14:39;2.00;99.90
13231;DHT22;6681;53.254;10.398;2022-11-20T09:17:04;1.90;99.90
13231;DHT22;6681;53.254;10.398;2022-11-20T09:19:30;2.50;99.90
13231;DHT22;6681;53.254;10.398;2022-11-20T09:21:55;2.00;99.90
13231;DHT22;6681;53.254;10.398;2022-11-20T09:24:21;2.00;99.90
13231;DHT22;6681;53.254;10.398;2022-11-20T09:26:47;2.90;99.90
13231;DHT22;6681;53.254;10.398;2022-11-20T09:29:12;3.70;99.90
13231;DHT22;6681;53.254;10.398;2022-11-20T09:31:38;3.80;99.90
13231;DHT22;6681;53.254;10.398;2022-11-20T09:34:04;2.10;99.90
13231;DHT22;6681;53.254;10.398;2022-11-20T09:36:29;2.10;99.90
13231;DHT22;6681;53.254;10.398;2022-11-20T09:38:55;2.10;99.90
13231;DHT22;6681;53.254;10.398;2022-11-20T09:47:16;2.20;99.90
13231;DHT22;6681;53.254;10.398;2022-11-20T09:50:17;2.20;99.90
13231;DHT22;6681;53.254;10.398;2022-11-20T09:55:49;2.80;99.90
13231;DHT22;6681;53.254;10.398;2022-11-20T09:58:38;2.20;99.90
13231;DHT22;6681;53.254;10.398;2022-11-20T10:01:20;2.20;99.90
13231;DHT22;6681;53.254;10.398;2022-11-20T10:07:11;2.30;99.90
13231;DHT22;6681;53.254;10.398;2022-11-20T10:09:35;2.30;99.90
13231;DHT22;6681;53.254;10.398;2022-11-20T10:12:18;2.40;99.90
13231;DHT22;6681;53.254;10.398;2022-11-20T10:18:09;2.40;99.90
13231;DHT22;6681;53.254;10.398;2022-11-20T10:21:09;2.80;99.90
13231;DHT22;6681;53.254;10.398;2022-11-20T10:31:38;2.90;99.90
13231;DHT22;6681;53.254;10.398;2022-11-20T10:34:18;3.00;99.90
13231;DHT22;6681;53.254;10.398;2022-11-20T10:36:54;2.60;99.90
13231;DHT22;6681;53.254;10.398;2022-11-20T10:39:26;2.60;99.90
13231;DHT22;6681;53.254;10.398;2022-11-20T10:41:54;2.90;99.90
13231;DHT22;6681;53.254;10.398;2022-11-20T10:44:24;2.90;99.90
13231;DHT22;6681;53.254;10.398;2022-11-20T10:47:18;2.70;99.90
13231;DHT22;6681;53.254;10.398;2022-11-20T10:49:53;2.60;99.90
13231;DHT22;6681;53.254;10.398;2022-11-20T10:58:13;2.50;99.90
13231;DHT22;6681;53.254;10.398;2022-11-20T11:00:39;2.50;99.90
13231;DHT22;6681;53.254;10.398;2022-11-20T11:03:20;2.50;99.90
13231;DHT22;6681;53.254;10.398;2022-11-20T11:06:06;2.50;99.90
13231;DHT22;6681;53.254;10.398;2022-11-20T11:08:37;2.60;99.90
13231;DHT22;6681;53.254;10.398;2022-11-20T11:11:23;3.10;99.90
13231;DHT22;6681;53.254;10.398;2022-11-20T11:13:49;2.70;99.90
13231;DHT22;6681;53.254;10.398;2022-11-20T11:16:26;2.70;99.90
13231;DHT22;6681;53.254;10.398;2022-11-20T11:19:03;2.70;99.90
13231;DHT22;6681;53.254;10.398;2022-11-20T11:21:29;2.80;99.90
13231;DHT22;6681;53.254;10.398;2022-11-20T11:24:03;2.80;99.90
13231;DHT22;6681;53.254;10.398;2022-11-20T11:26:29;2.90;99.90
13231;DHT22;6681;53.254;10.398;2022-11-20T11:28:59;2.90;99.90
13231;DHT22;6681;53.254;10.398;2022-11-20T11:31:30;3.00;99.90
13231;DHT22;6681;53.254;10.398;2022-11-20T11:34:06;3.10;99.90
13231;DHT22;6681;53.254;10.398;2022-11-20T11:36:33;3.10;99.90
13231;DHT22;6681;53.254;10.398;2022-11-20T11:38:59;3.10;99.90
13231;DHT22;6681;53.254;10.398;2022-11-20T11:41:30;3.40;99.90
13231;DHT22;6681;53.254;10.398;2022-11-20T11:44:01;3.40;99.90
13231;DHT22;6681;53.254;10.398;2022-11-20T11:46:53;3.30;99.90
13231;DHT22;6681;53.254;10.398;2022-11-20T11:49:20;3.20;99.90
13231;DHT22;6681;53.254;10.398;2022-11-20T11:52:08;3.10;99.90
13231;DHT22;6681;53.254;10.398;2022-11-20T11:54:55;3.10;99.90
13231;DHT22;6681;53.254;10.398;2022-11-20T12:00:13;3.10;99.90
13231;DHT22;6681;53.254;10.398;2022-11-20T12:11:23;3.00;99.90
13231;DHT22;6681;53.254;10.398;2022-11-20T12:16:35;3.10;99.90
13231;DHT22;6681;53.254;10.398;2022-11-20T12:19:01;3.20;99.90
13231;DHT22;6681;53.254;10.398;2022-11-20T12:29:32;3.30;99.90
13231;DHT22;6681;53.254;10.398;2022-11-20T12:43:16;3.20;99.90
13231;DHT22;6681;53.254;10.398;2022-11-20T12:49:33;3.20;99.90
13231;DHT22;6681;53.254;10.398;2022-11-20T13:00:14;3.10;99.90
13231;DHT22;6681;53.254;10.398;2022-11-20T13:08:25;3.00;99.90
13231;DHT22;6681;53.254;10.398;2022-11-20T13:10:58;3.00;99.90
13231;DHT22;6681;53.254;10.398;2022-11-20T13:13:48;3.00;99.90
13231;DHT22;6681;53.254;10.398;2022-11-20T13:16:19;2.30;99.90
13231;DHT22;6681;53.254;10.398;2022-11-20T13:18:45;3.00;99.90
13231;DHT22;6681;53.254;10.398;2022-11-20T13:21:37;2.90;99.90
13231;DHT22;6681;53.254;10.398;2022-11-20T13:26:44;2.90;99.90
13231;DHT22;6681;53.254;10.398;2022-11-20T13:29:19;3.60;99.90
13231;DHT22;6681;53.254;10.398;2022-11-20T13:31:46;2.90;99.90
13231;DHT22;6681;53.254;10.398;2022-11-20T13:34:33;3.00;99.90
13231;DHT22;6681;53.254;10.398;2022-11-20T13:36:59;3.20;99.90
13231;DHT22;6681;53.254;10.398;2022-11-20T13:39:36;2.90;99.90
13231;DHT22;6681;53.254;10.398;2022-11-20T13:42:28;0.80;99.90
13231;DHT22;6681;53.254;10.398;2022-11-20T13:44:54;4.50;99.90
13231;DHT22;6681;53.254;10.398;2022-11-20T13:47:25;3.00;99.90
13231;DHT22;6681;53.254;10.398;2022-11-20T13:49:52;3.00;99.90
13231;DHT22;6681;53.254;10.398;2022-11-20T13:55:31;2.90;99.90
13231;DHT22;6681;53.254;10.398;2022-11-20T13:58:06;3.00;99.90
13231;DHT22;6681;53.254;10.398;2022-11-20T14:00:33;2.90;99.90
13231;DHT22;6681;53.254;10.398;2022-11-20T14:03:18;2.90;99.90
13231;DHT22;6681;53.254;10.398;2022-11-20T14:05:57;2.90;99.90
13231;DHT22;6681;53.254;10.398;2022-11-20T14:08:37;2.90;99.90
13231;DHT22;6681;53.254;10.398;2022-11-20T14:11:06;2.90;99.90
13231;DHT22;6681;53.254;10.398;2022-11-20T14:13:37;2.80;99.90
13231;DHT22;6681;53.254;10.398;2022-11-20T14:16:03;2.80;99.90
13231;DHT22;6681;53.254;10.398;2022-11-20T14:18:29;2.80;99.90
13231;DHT22;6681;53.254;10.398;2022-11-20T14:20:54;2.90;99.90
13231;DHT22;6681;53.254;10.398;2022-11-20T14:23:28;2.70;99.90
13231;DHT22;6681;53.254;10.398;2022-11-20T14:25:54;2.70;99.90
13231;DHT22;6681;53.254;10.398;2022-11-20T14:28:26;2.70;99.90
13231;DHT22;6681;53.254;10.398;2022-11-20T14:30:52;2.60;99.90
13231;DHT22;6681;53.254;10.398;2022-11-20T14:33:18;2.60;99.90
13231;DHT22;6681;53.254;10.398;2022-11-20T14:35:50;2.60;99.90
13231;DHT22;6681;53.254;10.398;2022-11-20T14:38:18;2.70;99.90
13231;DHT22;6681;53.254;10.398;2022-11-20T14:40:45;2.80;99.90
13231;DHT22;6681;53.254;10.398;2022-11-20T14:43:23;2.80;99.90
13231;DHT22;6681;53.254;10.398;2022-11-20T14:46:04;2.80;99.90
13231;DHT22;6681;53.254;10.398;2022-11-20T14:48:43;2.70;99.90
13231;DHT22;6681;53.254;10.398;2022-11-20T14:51:37;2.70;99.90
13231;DHT22;6681;53.254;10.398;2022-11-20T14:54:15;2.70;99.90
13231;DHT22;6681;53.254;10.398;2022-11-20T14:56:42;2.70;99.90
13231;DHT22;6681;53.254;10.398;2022-11-20T14:59:26;2.70;99.90
13231;DHT22;6681;53.254;10.398;2022-11-20T15:02:05;2.60;99.90
13231;DHT22;6681;53.254;10.398;2022-11-20T15:04:31;2.70;99.90
13231;DHT22;6681;53.254;10.398;2022-11-20T15:06:58;2.60;99.90
13231;DHT22;6681;53.254;10.398;2022-11-20T15:09:24;2.50;99.90
13231;DHT22;6681;53.254;10.398;2022-11-20T15:12:03;2.50;99.90
13231;DHT22;6681;53.254;10.398;2022-11-20T15:14:30;2.50;99.90
13231;DHT22;6681;53.254;10.398;2022-11-20T15:16:59;2.70;99.90
13231;DHT22;6681;53.254;10.398;2022-11-20T15:19:25;2.60;99.90
13231;DHT22;6681;53.254;10.398;2022-11-20T15:21:52;3.50;99.90
13231;DHT22;6681;53.254;10.398;2022-11-20T15:24:18;2.50;99.90
13231;DHT22;6681;53.254;10.398;2022-11-20T15:26:44;2.40;99.90
13231;DHT22;6681;53.254;10.398;2022-11-20T15:29:12;2.40;99.90
13231;DHT22;6681;53.254;10.398;2022-11-20T15:31:38;2.40;99.90
13231;DHT22;6681;53.254;10.398;2022-11-20T15:34:15;3.90;99.90
13231;DHT22;6681;53.254;10.398;2022-11-20T15:36:42;2.30;99.90
13231;DHT22;6681;53.254;10.398;2022-11-20T15:39:08;2.20;99.90
13231;DHT22;6681;53.254;10.398;2022-11-20T15:41:35;2.20;99.90
13231;DHT22;6681;53.254;10.398;2022-11-20T15:44:01;2.10;99.90
13231;DHT22;6681;53.254;10.398;2022-11-20T15:46:32;1.80;99.90
13231;DHT22;6681;53.254;10.398;2022-11-20T15:49:03;2.10;99.90
13231;DHT22;6681;53.254;10.398;2022-11-20T15:51:41;2.00;99.90
13231;DHT22;6681;53.254;10.398;2022-11-20T15:54:16;2.00;99.90
13231;DHT22;6681;53.254;10.398;2022-11-20T15:56:43;2.70;99.90
13231;DHT22;6681;53.254;10.398;2022-11-20T15:59:09;2.00;99.90
13231;DHT22;6681;53.254;10.398;2022-11-20T16:01:34;2.00;99.90
13231;DHT22;6681;53.254;10.398;2022-11-20T16:04:00;1.90;99.90
13231;DHT22;6681;53.254;10.398;2022-11-20T16:06:26;1.90;99.90
13231;DHT22;6681;53.254;10.398;2022-11-20T16:08:52;1.80;99.90
13231;DHT22;6681;53.254;10.398;2022-11-20T16:11:18;1.80;99.90
13231;DHT22;6681;53.254;10.398;2022-11-20T16:13:43;1.80;99.90
13231;DHT22;6681;53.254;10.398;2022-11-20T16:16:36;3.20;99.90
13231;DHT22;6681;53.254;10.398;2022-11-20T16:19:03;1.80;99.90
13231;DHT22;6681;53.254;10.398;2022-11-20T16:21:28;2.10;99.90
13231;DHT22;6681;53.254;10.398;2022-11-20T16:24:01;1.80;99.90
13231;DHT22;6681;53.254;10.398;2022-11-20T16:26:27;1.80;99.90
13231;DHT22;6681;53.254;10.398;2022-11-20T16:28:54;1.80;99.90
13231;DHT22;6681;53.254;10.398;2022-11-20T16:31:20;1.80;99.90
13231;DHT22;6681;53.254;10.398;2022-11-20T16:33:50;1.80;99.90
13231;DHT22;6681;53.254;10.398;2022-11-20T16:36:16;1.70;99.90
13231;DHT22;6681;53.254;10.398;2022-11-20T16:38:42;1.90;99.90
13231;DHT22;6681;53.254;10.398;2022-11-20T16:41:09;2.00;99.90
13231;DHT22;6681;53.254;10.398;2022-11-20T16:44:08;1.70;99.90
13231;DHT22;6681;53.254;10.398;2022-11-20T16:46:34;2.30;99.90
13231;DHT22;6681;53.254;10.398;2022-11-20T16:49:05;1.70;99.90
13231;DHT22;6681;53.254;10.398;2022-11-20T16:51:34;1.70;99.90
13231;DHT22;6681;53.254;10.398;2022-11-20T16:54:07;0.50;99.90
13231;DHT22;6681;53.254;10.398;2022-11-20T16:56:34;1.80;99.90
13231;DHT22;6681;53.254;10.398;2022-11-20T16:59:00;1.60;99.90
13231;DHT22;6681;53.254;10.398;2022-11-20T17:01:27;1.50;99.90
13231;DHT22;6681;53.254;10.398;2022-11-20T17:03:55;2.60;99.90
13231;DHT22;6681;53.254;10.398;2022-11-20T17:06:24;2.60;99.90
13231;DHT22;6681;53.254;10.398;2022-11-20T17:08:50;1.60;99.90
13231;DHT22;6681;53.254;10.398;2022-11-20T17:11:17;1.60;99.90
13231;DHT22;6681;53.254;10.398;2022-11-20T17:13:44;1.60;99.90
13231;DHT22;6681;53.254;10.398;2022-11-20T17:16:12;1.60;99.90
13231;DHT22;6681;53.254;10.398;2022-11-20T17:18:38;1.90;99.90
13231;DHT22;6681;53.254;10.398;2022-11-20T17:21:04;1.70;99.90
13231;DHT22;6681;53.254;10.398;2022-11-20T17:23:31;1.60;99.90
13231;DHT22;6681;53.254;10.398;2022-11-20T17:26:25;2.00;99.90
13231;DHT22;6681;53.254;10.398;2022-11-20T17:28:55;1.60;99.90